createdAt,value
2022-07-29T00:01:00.593Z,47.66
2022-07-29T00:02:33.417Z,48.02
2022-07-29T00:04:05.391Z,47.62
2022-07-29T00:05:37.381Z,47.71
2022-07-29T00:07:09.438Z,46.91
2022-07-29T00:08:42.523Z,47.75
2022-07-29T00:10:14.479Z,47.34
2022-07-29T00:11:46.377Z,47.48
2022-07-29T00:13:18.265Z,47.47
2022-07-29T00:15:04.145Z,46.79
2022-07-29T00:16:36.196Z,47.78
2022-07-29T00:18:11.209Z,47.16
2022-07-29T00:19:45.601Z,47.29
2022-07-29T00:21:17.664Z,47.11
2022-07-29T00:22:49.484Z,48.02
2022-07-29T00:24:21.365Z,47.44
2022-07-29T00:25:55.173Z,46.99
2022-07-29T00:27:27.024Z,47.30
2022-07-29T00:29:31.200Z,48.03
2022-07-29T00:30:52.231Z,47.04
2022-07-29T00:32:24.096Z,47.70
2022-07-29T00:33:56.351Z,47.63
2022-07-29T00:35:46.384Z,47.41
2022-07-29T00:37:18.264Z,47.00
2022-07-29T00:38:51.326Z,47.29
2022-07-29T00:40:25.250Z,47.92
2022-07-29T00:41:57.243Z,47.96
2022-07-29T00:43:29.108Z,48.25
2022-07-29T00:45:00.964Z,48.13
2022-07-29T00:46:32.817Z,47.83
2022-07-29T00:48:05.974Z,48.23
2022-07-29T00:49:43.032Z,47.46
2022-07-29T00:51:15.283Z,47.75
2022-07-29T00:52:47.471Z,47.59
2022-07-29T00:54:19.611Z,48.47
2022-07-29T00:55:52.388Z,48.79
2022-07-29T00:57:24.267Z,47.99
2022-07-29T00:58:57.911Z,48.33
2022-07-29T01:00:30.415Z,48.32
2022-07-29T01:02:04.358Z,47.85
2022-07-29T01:03:36.363Z,49.09
2022-07-29T01:05:08.655Z,48.46
2022-07-29T01:06:40.662Z,48.22
2022-07-29T01:08:16.578Z,48.24
2022-07-29T01:09:48.700Z,48.46
2022-07-29T01:11:20.819Z,48.10
2022-07-29T01:12:54.136Z,48.62
2022-07-29T01:14:26.536Z,48.80
2022-07-29T01:16:01.788Z,48.10
2022-07-29T01:17:36.051Z,48.38
2022-07-29T01:19:31.542Z,48.62
2022-07-29T01:21:12.107Z,48.01
2022-07-29T01:23:10.053Z,48.69
2022-07-29T01:25:29.701Z,50.13
2022-07-29T01:27:27.311Z,53.37
2022-07-29T01:29:20.088Z,54.42
2022-07-29T01:30:55.173Z,53.82
2022-07-29T01:32:31.048Z,55.08
2022-07-29T01:34:07.150Z,54.46
2022-07-29T01:35:42.366Z,54.65
2022-07-29T01:37:19.683Z,54.91
2022-07-29T01:39:00.846Z,55.36
2022-07-29T01:41:13.412Z,55.90
2022-07-29T01:42:51.639Z,55.32
2022-07-29T01:44:48.260Z,57.28
2022-07-29T01:46:31.203Z,57.91
2022-07-29T01:48:24.851Z,59.65
2022-07-29T01:49:58.125Z,59.36
2022-07-29T01:51:57.359Z,60.37
2022-07-29T01:53:39.706Z,59.39
2022-07-29T01:55:15.295Z,58.91
2022-07-29T01:56:50.237Z,58.09
2022-07-29T01:58:22.930Z,58.94
2022-07-29T01:59:57.651Z,59.85
2022-07-29T02:01:31.172Z,60.55
2022-07-29T02:03:07.022Z,61.50
2022-07-29T02:04:40.503Z,61.73
2022-07-29T02:06:13.132Z,63.11
2022-07-29T02:07:46.013Z,65.59
2022-07-29T02:09:19.067Z,66.50
2022-07-29T02:10:51.688Z,66.33
2022-07-29T02:12:25.430Z,68.04
2022-07-29T02:13:57.906Z,67.53
2022-07-29T02:15:33.969Z,67.88
2022-07-29T02:17:05.949Z,68.06
2022-07-29T02:18:38.867Z,68.18
2022-07-29T02:20:11.260Z,69.11
2022-07-29T02:21:44.280Z,68.84
2022-07-29T02:23:20.880Z,69.25
2022-07-29T02:24:53.077Z,68.41
2022-07-29T02:26:27.205Z,69.05
2022-07-29T02:28:00.301Z,68.63
2022-07-29T02:29:32.556Z,69.21
2022-07-29T02:31:04.851Z,69.07
2022-07-29T02:32:37.907Z,68.79
2022-07-29T02:34:13.324Z,69.62
2022-07-29T02:35:47.126Z,70.28
2022-07-29T02:37:20.075Z,70.71
2022-07-29T02:38:52.805Z,70.43
2022-07-29T02:40:26.765Z,70.13
2022-07-29T02:42:07.207Z,70.98
2022-07-29T02:43:40.523Z,71.60
2022-07-29T02:45:12.466Z,71.38
2022-07-29T02:46:52.179Z,71.86
2022-07-29T02:48:29.281Z,71.44
2022-07-29T02:50:09.512Z,71.29
2022-07-29T02:51:52.447Z,71.82
2022-07-29T02:53:26.465Z,72.34
2022-07-29T02:55:01.807Z,72.67
2022-07-29T02:56:36.103Z,73.81
2022-07-29T02:58:15.752Z,73.29
2022-07-29T02:59:49.397Z,72.59
2022-07-29T03:01:24.065Z,72.34
2022-07-29T03:02:58.113Z,72.23
2022-07-29T03:04:32.285Z,72.97
2022-07-29T03:06:05.575Z,73.02
2022-07-29T03:07:38.222Z,72.77
2022-07-29T03:09:13.301Z,72.44
2022-07-29T03:10:46.948Z,71.39
2022-07-29T03:12:19.268Z,71.53
2022-07-29T03:13:51.569Z,70.75
2022-07-29T03:15:24.115Z,70.70
2022-07-29T03:16:56.806Z,70.63
2022-07-29T03:18:28.841Z,70.67
2022-07-29T03:20:01.022Z,70.86
2022-07-29T03:21:33.070Z,71.15
2022-07-29T03:23:05.532Z,71.93
2022-07-29T03:24:37.971Z,72.89
2022-07-29T03:26:09.873Z,70.70
2022-07-29T03:27:42.100Z,71.73
2022-07-29T03:29:13.970Z,71.77
2022-07-29T03:30:45.892Z,72.03
2022-07-29T03:32:23.833Z,70.09
2022-07-29T03:33:57.029Z,70.53
2022-07-29T03:35:29.368Z,71.01
2022-07-29T03:37:01.246Z,72.65
2022-07-29T03:38:35.263Z,76.75
2022-07-29T03:40:09.764Z,76.68
2022-07-29T03:41:42.851Z,76.23
2022-07-29T03:43:16.973Z,76.04
2022-07-29T03:44:49.728Z,75.92
2022-07-29T03:46:22.153Z,76.42
2022-07-29T03:48:01.266Z,76.42
2022-07-29T03:49:33.964Z,78.15
2022-07-29T03:51:05.894Z,76.58
2022-07-29T03:52:39.247Z,76.63
2022-07-29T03:54:11.469Z,77.70
2022-07-29T03:55:46.601Z,78.37
2022-07-29T03:57:22.901Z,79.79
2022-07-29T03:58:55.839Z,79.22
2022-07-29T04:00:28.652Z,80.82
2022-07-29T04:02:01.362Z,82.04
2022-07-29T04:03:33.475Z,82.04
2022-07-29T04:05:05.661Z,82.03
2022-07-29T04:06:46.385Z,82.11
2022-07-29T04:08:20.587Z,83.54
2022-07-29T04:09:52.467Z,83.58
2022-07-29T04:11:27.156Z,83.67
2022-07-29T04:13:00.341Z,84.44
2022-07-29T04:14:36.538Z,84.96
2022-07-29T04:16:08.455Z,84.41
2022-07-29T04:17:40.337Z,84.58
2022-07-29T04:19:12.220Z,84.33
2022-07-29T04:20:44.171Z,84.56
2022-07-29T04:22:16.014Z,84.71
2022-07-29T04:23:53.147Z,84.43
2022-07-29T04:25:25.977Z,84.17
2022-07-29T04:26:57.833Z,85.18
2022-07-29T04:28:29.668Z,84.71
2022-07-29T04:30:01.529Z,83.87
2022-07-29T04:31:33.570Z,83.82
2022-07-29T04:33:06.908Z,84.22
2022-07-29T04:34:39.727Z,83.32
2022-07-29T04:36:28.570Z,83.49
2022-07-29T04:38:01.801Z,83.83
2022-07-29T04:39:33.749Z,82.70
2022-07-29T04:41:07.779Z,82.81
2022-07-29T04:42:45.046Z,81.82
2022-07-29T04:44:19.410Z,80.24
2022-07-29T04:45:51.507Z,80.82
2022-07-29T04:47:25.366Z,81.76
2022-07-29T04:48:57.260Z,82.53
2022-07-29T04:50:29.321Z,83.06
2022-07-29T04:52:01.329Z,82.94
2022-07-29T04:53:33.177Z,83.79
2022-07-29T04:55:06.141Z,83.80
2022-07-29T04:56:38.024Z,84.15
2022-07-29T04:58:09.980Z,83.78
2022-07-29T04:59:41.797Z,83.05
2022-07-29T05:01:13.745Z,82.31
2022-07-29T05:02:45.831Z,82.09
2022-07-29T05:04:18.280Z,82.22
2022-07-29T05:05:50.331Z,81.24
2022-07-29T05:07:22.265Z,81.24
2022-07-29T05:08:54.122Z,82.01
2022-07-29T05:10:26.496Z,84.02
2022-07-29T05:11:58.431Z,83.63
2022-07-29T05:13:30.594Z,83.73
2022-07-29T05:15:18.792Z,83.73
2022-07-29T05:16:52.234Z,83.68
2022-07-29T05:18:25.999Z,83.42
2022-07-29T05:19:58.216Z,83.26
2022-07-29T05:21:30.074Z,83.26
2022-07-29T05:23:02.796Z,82.31
2022-07-29T05:24:34.539Z,82.62
2022-07-29T05:26:06.447Z,83.57
2022-07-29T05:27:38.450Z,82.90
2022-07-29T05:29:42.726Z,82.69
2022-07-29T05:31:02.970Z,82.84
2022-07-29T05:32:35.043Z,82.70
2022-07-29T05:34:06.906Z,82.28
2022-07-29T05:35:38.751Z,82.49
2022-07-29T05:37:10.707Z,82.49
2022-07-29T05:38:42.606Z,82.28
2022-07-29T05:40:14.497Z,82.36
2022-07-29T05:41:51.533Z,81.91
2022-07-29T05:43:24.167Z,82.81
2022-07-29T05:44:56.342Z,82.08
2022-07-29T05:46:28.291Z,82.03
2022-07-29T05:48:00.157Z,81.40
2022-07-29T05:49:32.292Z,82.04
2022-07-29T05:51:04.358Z,81.13
2022-07-29T05:52:36.226Z,81.07
2022-07-29T05:54:08.117Z,81.30
2022-07-29T05:55:39.976Z,81.07
2022-07-29T05:57:19.116Z,80.48
2022-07-29T05:58:51.012Z,81.07
2022-07-29T06:00:25.252Z,80.31
2022-07-29T06:01:58.289Z,80.16
2022-07-29T06:03:31.372Z,80.08
2022-07-29T06:05:03.656Z,81.00
2022-07-29T06:06:35.844Z,80.61
2022-07-29T06:08:08.404Z,80.67
2022-07-29T06:09:40.533Z,80.70
2022-07-29T06:11:12.520Z,80.62
2022-07-29T06:12:44.405Z,80.21
2022-07-29T06:14:16.635Z,80.81
2022-07-29T06:15:48.861Z,80.59
2022-07-29T06:17:20.801Z,80.66
2022-07-29T06:18:55.862Z,80.89
2022-07-29T06:20:30.918Z,80.77
2022-07-29T06:22:03.209Z,80.06
2022-07-29T06:23:35.079Z,80.27
2022-07-29T06:25:07.393Z,79.72
2022-07-29T06:26:42.024Z,80.43
2022-07-29T06:28:13.954Z,80.82
2022-07-29T06:29:45.844Z,81.80
2022-07-29T06:31:18.569Z,83.36
2022-07-29T06:32:50.571Z,85.33
2022-07-29T06:34:22.471Z,85.94
2022-07-29T06:35:57.886Z,86.95
2022-07-29T06:37:29.879Z,87.80
2022-07-29T06:39:13.219Z,86.50
2022-07-29T06:41:01.266Z,86.35
2022-07-29T06:42:33.309Z,87.58
2022-07-29T06:44:05.776Z,86.44
2022-07-29T06:45:37.822Z,86.79
2022-07-29T06:47:09.669Z,86.82
2022-07-29T06:48:43.480Z,87.96
2022-07-29T06:50:15.487Z,89.67
2022-07-29T06:51:47.690Z,89.72
2022-07-29T06:53:19.517Z,88.83
2022-07-29T06:56:28.754Z,87.88
2022-07-29T06:58:00.615Z,87.42
2022-07-29T06:59:35.808Z,88.05
2022-07-29T07:01:08.024Z,88.63
2022-07-29T07:02:39.951Z,89.14
2022-07-29T07:04:12.549Z,88.45
2022-07-29T07:05:45.353Z,89.00
2022-07-29T07:07:17.076Z,88.47
2022-07-29T07:08:49.868Z,87.88
2022-07-29T07:10:21.754Z,88.11
2022-07-29T07:11:55.974Z,87.30
2022-07-29T07:13:29.237Z,86.93
2022-07-29T07:15:01.091Z,86.12
2022-07-29T07:16:33.309Z,87.11
2022-07-29T07:18:09.471Z,87.10
2022-07-29T07:19:41.335Z,85.38
2022-07-29T07:21:19.123Z,84.88
2022-07-29T07:22:51.375Z,84.68
2022-07-29T07:24:25.258Z,85.09
2022-07-29T07:25:57.107Z,86.59
2022-07-29T07:27:29.411Z,86.81
2022-07-29T07:29:01.552Z,87.18
2022-07-29T07:30:33.761Z,87.24
2022-07-29T07:32:06.042Z,87.31
2022-07-29T07:33:38.063Z,86.47
2022-07-29T07:35:10.868Z,85.89
2022-07-29T07:36:42.603Z,84.76
2022-07-29T07:38:14.500Z,83.90
2022-07-29T07:39:46.439Z,82.52
2022-07-29T07:41:18.349Z,83.62
2022-07-29T07:42:50.241Z,83.70
2022-07-29T07:44:22.970Z,83.73
2022-07-29T07:45:55.178Z,84.93
2022-07-29T07:47:27.920Z,85.38
2022-07-29T07:48:59.948Z,85.11
2022-07-29T07:50:32.016Z,84.79
2022-07-29T07:52:04.293Z,84.49
2022-07-29T07:53:36.302Z,84.44
2022-07-29T07:55:08.580Z,84.01
2022-07-29T07:56:40.436Z,83.84
2022-07-29T07:58:12.890Z,83.03
2022-07-29T07:59:44.776Z,83.37
2022-07-29T08:01:20.166Z,83.80
2022-07-29T08:02:52.179Z,83.75
2022-07-29T08:04:28.541Z,83.39
2022-07-29T08:06:00.813Z,82.97
2022-07-29T08:07:32.703Z,82.68
2022-07-29T08:09:27.658Z,82.50
2022-07-29T08:10:57.552Z,83.08
2022-07-29T08:12:29.354Z,83.18
2022-07-29T08:14:02.449Z,83.04
2022-07-29T08:15:34.996Z,82.70
2022-07-29T08:17:06.927Z,83.95
2022-07-29T08:18:40.019Z,84.90
2022-07-29T08:20:12.072Z,85.39
2022-07-29T08:21:43.960Z,86.82
2022-07-29T08:23:15.792Z,87.44
2022-07-29T08:24:54.890Z,87.77
2022-07-29T08:26:27.625Z,87.33
2022-07-29T08:28:00.035Z,87.76
2022-07-29T08:29:31.894Z,88.39
2022-07-29T08:31:03.793Z,88.72
2022-07-29T08:34:28.095Z,88.39
2022-07-29T08:36:00.519Z,88.47
2022-07-29T08:37:32.333Z,88.35
2022-07-29T08:39:04.667Z,89.62
2022-07-29T08:40:37.086Z,89.72
2022-07-29T08:42:09.092Z,88.57
2022-07-29T08:43:42.113Z,88.59
2022-07-29T08:45:16.998Z,87.88
2022-07-29T08:46:50.623Z,87.70
2022-07-29T08:48:24.255Z,87.27
2022-07-29T08:49:56.138Z,87.09
2022-07-29T08:51:28.890Z,86.98
2022-07-29T08:53:00.670Z,86.00
2022-07-29T08:54:32.526Z,85.66
2022-07-29T08:56:04.624Z,86.09
2022-07-29T08:57:37.146Z,84.55
2022-07-29T08:59:09.089Z,84.11
2022-07-29T09:00:46.914Z,85.28
2022-07-29T09:02:22.161Z,85.30
2022-07-29T09:03:56.927Z,85.64
2022-07-29T09:05:30.458Z,83.13
2022-07-29T09:07:05.486Z,81.25
2022-07-29T09:08:37.352Z,82.09
2022-07-29T09:10:09.611Z,79.72
2022-07-29T09:11:42.564Z,80.50
2022-07-29T09:13:14.430Z,79.65
2022-07-29T09:14:46.328Z,79.64
2022-07-29T09:16:37.275Z,78.44
2022-07-29T09:18:20.438Z,76.26
2022-07-29T09:20:14.280Z,74.22
2022-07-29T09:22:03.371Z,71.95
2022-07-29T09:23:35.838Z,69.25
2022-07-29T09:25:08.344Z,70.48
2022-07-29T09:26:43.199Z,67.93
2022-07-29T09:28:19.537Z,69.16
2022-07-29T09:30:05.277Z,69.45
2022-07-29T09:31:39.380Z,67.16
2022-07-29T09:33:12.114Z,66.75
2022-07-29T09:34:44.047Z,64.89
2022-07-29T09:36:15.900Z,64.71
2022-07-29T09:37:48.815Z,63.39
2022-07-29T09:39:32.498Z,63.34
2022-07-29T09:41:06.754Z,62.33
2022-07-29T09:42:38.924Z,62.22
2022-07-29T09:44:10.965Z,61.22
2022-07-29T09:45:42.909Z,60.89
2022-07-29T09:47:15.342Z,61.20
2022-07-29T09:49:07.493Z,61.23
2022-07-29T09:50:41.705Z,59.68
2022-07-29T09:52:13.537Z,58.41
2022-07-29T09:53:45.452Z,57.21
2022-07-29T09:55:18.577Z,57.70
2022-07-29T09:56:51.817Z,55.98
2022-07-29T09:58:23.928Z,58.72
2022-07-29T09:59:59.347Z,60.12
2022-07-29T10:01:31.184Z,59.10
2022-07-29T10:03:03.937Z,60.17
2022-07-29T10:04:42.493Z,59.38
2022-07-29T10:06:16.893Z,60.25
2022-07-29T10:07:56.977Z,59.82
2022-07-29T10:09:30.022Z,59.74
2022-07-29T10:11:16.826Z,58.24
2022-07-29T10:12:57.765Z,57.67
2022-07-29T10:14:32.271Z,56.69
2022-07-29T10:16:04.386Z,57.15
2022-07-29T10:17:36.367Z,55.96
2022-07-29T10:19:14.859Z,55.41
2022-07-29T10:20:46.815Z,55.20
2022-07-29T10:22:36.920Z,54.11
2022-07-29T10:24:14.608Z,54.65
2022-07-29T10:25:47.355Z,54.71
2022-07-29T10:27:19.257Z,51.50
2022-07-29T10:28:51.195Z,51.82
2022-07-29T10:30:25.023Z,52.21
2022-07-29T10:32:05.748Z,52.71
2022-07-29T10:34:02.725Z,52.96
2022-07-29T10:35:59.744Z,53.08
2022-07-29T10:38:05.565Z,50.73
2022-07-29T10:39:44.723Z,49.76
2022-07-29T10:41:47.745Z,51.63
2022-07-29T10:43:26.687Z,51.62
2022-07-29T10:45:04.316Z,53.11
2022-07-29T10:46:37.898Z,52.73
2022-07-29T10:48:10.976Z,52.41
2022-07-29T10:50:01.299Z,51.14
2022-07-29T10:51:51.723Z,52.46
2022-07-29T10:54:05.984Z,52.17
2022-07-29T10:55:45.514Z,50.30
2022-07-29T10:57:26.006Z,51.66
2022-07-29T10:59:22.778Z,52.38
2022-07-29T11:00:56.384Z,52.42
2022-07-29T11:02:42.426Z,50.14
2022-07-29T11:04:16.532Z,51.33
2022-07-29T11:05:59.910Z,51.04
2022-07-29T11:07:45.688Z,48.51
2022-07-29T11:09:25.815Z,48.94
2022-07-29T11:11:22.441Z,51.32
2022-07-29T11:13:01.517Z,52.38
2022-07-29T11:14:52.184Z,51.51
2022-07-29T11:16:24.916Z,51.05
2022-07-29T11:18:01.465Z,50.06
2022-07-29T11:19:33.715Z,49.92
2022-07-29T11:21:53.551Z,49.63
2022-07-29T11:23:36.782Z,49.29
2022-07-29T11:25:16.828Z,48.28
2022-07-29T11:27:12.106Z,46.55
2022-07-29T11:28:54.239Z,48.87
2022-07-29T11:30:50.864Z,47.62
2022-07-29T11:32:25.046Z,46.84
2022-07-29T11:34:05.505Z,48.97
2022-07-29T11:35:39.842Z,48.53
2022-07-29T11:37:14.843Z,46.85
2022-07-29T11:38:46.717Z,46.65
2022-07-29T11:40:20.223Z,45.60
2022-07-29T11:41:53.498Z,45.22
2022-07-29T11:43:55.841Z,47.95
2022-07-29T11:45:44.461Z,47.12
2022-07-29T11:47:21.517Z,46.84
2022-07-29T11:48:53.787Z,47.09
2022-07-29T11:50:37.065Z,44.57
2022-07-29T11:52:10.989Z,44.48
2022-07-29T11:53:48.354Z,46.54
2022-07-29T11:55:32.258Z,46.97
2022-07-29T11:57:08.019Z,44.43
2022-07-29T11:58:40.747Z,47.02
2022-07-29T12:00:14.498Z,47.59
2022-07-29T12:02:02.428Z,47.02
2022-07-29T12:03:46.118Z,46.92
2022-07-29T12:07:11.354Z,47.38
2022-07-29T12:08:48.136Z,47.05
2022-07-29T12:10:30.635Z,46.27
2022-07-29T12:12:05.427Z,47.40
2022-07-29T12:13:40.080Z,46.08
2022-07-29T12:15:14.015Z,45.42
2022-07-29T12:16:47.183Z,42.42
2022-07-29T12:18:24.026Z,44.00
2022-07-29T12:20:03.848Z,44.03
2022-07-29T12:21:53.995Z,44.55
2022-07-29T12:23:29.353Z,44.70
2022-07-29T12:25:32.398Z,44.37
2022-07-29T12:27:05.755Z,44.71
2022-07-29T12:28:40.748Z,44.36
2022-07-29T12:30:17.486Z,45.15
2022-07-29T12:31:55.050Z,45.36
2022-07-29T12:33:30.651Z,43.54
2022-07-29T12:35:10.339Z,43.87
2022-07-29T12:36:43.204Z,43.74
2022-07-29T12:38:15.376Z,43.73
2022-07-29T12:39:47.385Z,42.51
2022-07-29T12:41:19.307Z,41.37
2022-07-29T12:43:13.151Z,41.24
2022-07-29T12:44:53.941Z,42.37
2022-07-29T12:46:25.890Z,40.42
2022-07-29T12:47:58.672Z,40.13
2022-07-29T12:49:30.898Z,40.88
2022-07-29T12:51:12.819Z,41.22
2022-07-29T12:52:45.660Z,40.95
2022-07-29T12:54:17.520Z,40.34
2022-07-29T12:55:52.652Z,37.86
2022-07-29T12:57:25.095Z,39.87
2022-07-29T12:58:56.884Z,39.38
2022-07-29T13:00:28.812Z,40.56
2022-07-29T13:02:01.220Z,39.88
2022-07-29T13:03:57.477Z,38.51
2022-07-29T13:05:49.375Z,38.69
2022-07-29T13:07:55.254Z,39.93
2022-07-29T13:09:23.584Z,38.38
2022-07-29T13:10:55.745Z,37.70
2022-07-29T13:12:27.627Z,37.57
2022-07-29T13:14:07.041Z,38.31
2022-07-29T13:15:41.294Z,39.12
2022-07-29T13:17:14.677Z,37.40
2022-07-29T13:18:46.494Z,38.81
2022-07-29T13:20:18.366Z,39.56
2022-07-29T13:21:50.272Z,39.19
2022-07-29T13:23:22.322Z,40.34
2022-07-29T13:25:04.571Z,39.90
2022-07-29T13:26:38.124Z,39.64
2022-07-29T13:28:12.827Z,41.72
2022-07-29T13:29:45.050Z,40.83
2022-07-29T13:31:17.545Z,39.16
2022-07-29T13:32:50.129Z,41.15
2022-07-29T13:34:24.830Z,40.51
2022-07-29T13:35:56.691Z,40.39
2022-07-29T13:37:30.914Z,40.41
2022-07-29T13:39:03.750Z,40.56
2022-07-29T13:40:36.496Z,39.70
2022-07-29T13:42:11.088Z,40.06
2022-07-29T13:43:43.101Z,40.17
2022-07-29T13:45:15.244Z,39.94
2022-07-29T13:46:47.135Z,37.73
2022-07-29T13:48:19.105Z,38.93
2022-07-29T13:49:56.792Z,40.55
2022-07-29T13:51:28.683Z,40.58
2022-07-29T13:53:00.537Z,39.90
2022-07-29T13:54:32.448Z,39.77
2022-07-29T13:56:06.917Z,39.49
2022-07-29T13:57:38.780Z,38.20
2022-07-29T13:59:10.761Z,39.34
2022-07-29T14:00:43.923Z,36.50
2022-07-29T14:02:15.801Z,36.43
2022-07-29T14:03:47.748Z,38.83
2022-07-29T14:05:19.612Z,40.10
2022-07-29T14:06:51.733Z,39.54
2022-07-29T14:08:23.753Z,37.86
2022-07-29T14:09:55.779Z,39.38
2022-07-29T14:11:30.197Z,40.15
2022-07-29T14:13:02.277Z,40.47
2022-07-29T14:14:38.155Z,40.80
2022-07-29T14:16:10.309Z,40.92
2022-07-29T14:17:42.305Z,40.62
2022-07-29T14:19:14.414Z,40.46
2022-07-29T14:20:48.153Z,40.76
2022-07-29T14:22:20.237Z,38.46
2022-07-29T14:23:55.711Z,39.24
2022-07-29T14:25:28.241Z,38.87
2022-07-29T14:27:00.501Z,38.95
2022-07-29T14:28:33.340Z,38.12
2022-07-29T14:30:06.034Z,39.08
2022-07-29T14:31:40.747Z,39.19
2022-07-29T14:33:12.670Z,39.31
2022-07-29T14:34:44.524Z,39.28
2022-07-29T14:36:16.459Z,38.85
2022-07-29T14:37:48.389Z,39.51
2022-07-29T14:39:20.263Z,39.77
2022-07-29T14:40:56.255Z,40.62
2022-07-29T14:42:28.164Z,39.39
2022-07-29T14:44:01.763Z,39.09
2022-07-29T14:45:33.923Z,39.16
2022-07-29T14:47:07.796Z,39.27
2022-07-29T14:48:40.419Z,38.79
2022-07-29T14:50:12.411Z,37.30
2022-07-29T14:51:44.279Z,38.71
2022-07-29T14:53:16.405Z,40.02
2022-07-29T14:54:48.739Z,38.96
2022-07-29T14:56:36.604Z,38.48
2022-07-29T14:58:18.181Z,38.77
2022-07-29T14:59:50.126Z,38.62
2022-07-29T15:01:22.001Z,37.45
2022-07-29T15:03:02.609Z,38.12
2022-07-29T15:04:35.420Z,37.62
2022-07-29T15:06:08.095Z,38.24
2022-07-29T15:07:40.071Z,38.20
2022-07-29T15:09:12.032Z,38.25
2022-07-29T15:10:43.821Z,36.92
2022-07-29T15:12:15.690Z,35.88
2022-07-29T15:13:47.642Z,35.37
2022-07-29T15:15:19.495Z,36.26
2022-07-29T15:16:54.098Z,37.76
2022-07-29T15:18:26.112Z,38.21
2022-07-29T15:19:57.942Z,38.22
2022-07-29T15:21:29.796Z,37.34
2022-07-29T15:23:01.736Z,37.86
2022-07-29T15:24:33.961Z,38.52
2022-07-29T15:26:05.959Z,37.34
2022-07-29T15:27:37.908Z,38.21
2022-07-29T15:29:10.095Z,35.99
2022-07-29T15:30:42.007Z,37.36
2022-07-29T15:32:13.891Z,36.79
2022-07-29T15:33:46.003Z,34.43
2022-07-29T15:35:17.913Z,36.79
2022-07-29T15:36:53.345Z,36.33
2022-07-29T15:38:28.783Z,37.53
2022-07-29T15:40:01.021Z,37.32
2022-07-29T15:41:34.084Z,36.96
2022-07-29T15:43:06.944Z,36.24
2022-07-29T15:44:38.838Z,37.00
2022-07-29T15:46:33.391Z,37.62
2022-07-29T15:48:07.161Z,35.95
2022-07-29T15:49:48.056Z,37.24
2022-07-29T15:51:21.361Z,36.42
2022-07-29T15:52:54.331Z,36.75
2022-07-29T15:54:26.653Z,36.69
2022-07-29T15:55:58.433Z,36.35
2022-07-29T15:57:30.265Z,36.57
2022-07-29T15:59:02.142Z,36.78
2022-07-29T16:00:34.144Z,37.13
2022-07-29T16:02:06.299Z,36.30
2022-07-29T16:03:40.968Z,36.81
2022-07-29T16:05:14.988Z,37.15
2022-07-29T16:06:47.721Z,36.46
2022-07-29T16:08:19.676Z,36.58
2022-07-29T16:09:53.393Z,36.22
2022-07-29T16:11:25.386Z,36.04
2022-07-29T16:12:57.242Z,34.66
2022-07-29T16:14:29.174Z,34.36
2022-07-29T16:16:04.195Z,35.54
2022-07-29T16:17:36.354Z,35.89
2022-07-29T16:19:10.592Z,36.37
2022-07-29T16:20:42.829Z,34.49
2022-07-29T16:22:14.810Z,35.88
2022-07-29T16:23:46.670Z,36.70
2022-07-29T16:25:43.957Z,36.64
2022-07-29T16:27:17.267Z,36.00
2022-07-29T16:28:49.103Z,37.25
2022-07-29T16:30:23.599Z,36.97
2022-07-29T16:31:55.602Z,37.82
2022-07-29T16:33:28.472Z,36.69
2022-07-29T16:35:22.027Z,37.46
2022-07-29T16:36:53.844Z,36.70
2022-07-29T16:38:25.894Z,36.84
2022-07-29T16:39:57.742Z,37.63
2022-07-29T16:41:29.831Z,38.57
2022-07-29T16:43:01.709Z,38.22
2022-07-29T16:44:34.829Z,37.25
2022-07-29T16:46:11.231Z,38.15
2022-07-29T16:47:51.782Z,36.24
2022-07-29T16:49:27.437Z,38.01
2022-07-29T16:51:01.719Z,38.23
2022-07-29T16:52:33.890Z,38.02
2022-07-29T16:54:05.976Z,37.47
2022-07-29T16:55:38.191Z,38.33
2022-07-29T16:57:10.096Z,38.84
2022-07-29T16:58:43.949Z,38.26
2022-07-29T17:00:17.788Z,38.26
2022-07-29T17:01:49.739Z,37.92
2022-07-29T17:03:21.637Z,37.77
2022-07-29T17:04:53.569Z,39.01
2022-07-29T17:06:25.512Z,38.39
2022-07-29T17:07:58.584Z,38.07
2022-07-29T17:09:31.147Z,38.70
2022-07-29T17:11:02.967Z,38.33
2022-07-29T17:12:39.889Z,38.10
2022-07-29T17:14:11.889Z,38.18
2022-07-29T17:15:44.271Z,37.42
2022-07-29T17:17:20.957Z,38.45
2022-07-29T17:19:08.997Z,38.28
2022-07-29T17:20:42.086Z,38.51
2022-07-29T17:22:19.079Z,38.85
2022-07-29T17:23:52.565Z,38.95
2022-07-29T17:25:24.431Z,38.70
2022-07-29T17:26:56.724Z,38.70
2022-07-29T17:28:28.727Z,38.72
2022-07-29T17:30:00.644Z,38.61
2022-07-29T17:31:32.551Z,39.40
2022-07-29T17:33:04.544Z,38.75
2022-07-29T17:34:40.784Z,39.04
2022-07-29T17:36:27.691Z,38.37
2022-07-29T17:37:59.677Z,38.30
2022-07-29T17:39:31.591Z,39.54
2022-07-29T17:41:07.794Z,38.57
2022-07-29T17:42:41.600Z,38.91
2022-07-29T17:44:13.919Z,38.70
2022-07-29T17:45:49.644Z,39.41
2022-07-29T17:47:22.550Z,38.24
2022-07-29T17:48:56.022Z,39.09
2022-07-29T17:50:27.959Z,38.88
2022-07-29T17:52:01.142Z,38.72
2022-07-29T17:53:33.148Z,38.17
2022-07-29T17:55:05.928Z,39.24
2022-07-29T17:56:37.884Z,40.40
2022-07-29T17:58:09.734Z,39.44
2022-07-29T17:59:41.588Z,40.36
2022-07-29T18:01:14.588Z,40.00
2022-07-29T18:02:47.549Z,40.83
2022-07-29T18:04:21.238Z,40.53
2022-07-29T18:05:53.735Z,40.38
2022-07-29T18:07:25.465Z,40.71
2022-07-29T18:08:57.421Z,39.93
2022-07-29T18:10:29.442Z,40.73
2022-07-29T18:12:01.332Z,41.43
2022-07-29T18:13:33.296Z,41.15
2022-07-29T18:15:05.732Z,40.69
2022-07-29T18:16:38.631Z,41.51
2022-07-29T18:18:11.083Z,41.58
2022-07-29T18:19:42.912Z,40.90
2022-07-29T18:21:17.614Z,41.07
2022-07-29T18:23:09.584Z,41.14
2022-07-29T18:24:42.080Z,41.21
2022-07-29T18:26:13.849Z,41.70
2022-07-29T18:27:45.799Z,41.61
2022-07-29T18:29:17.653Z,42.14
2022-07-29T18:30:49.740Z,42.18
2022-07-29T18:32:29.306Z,42.09
2022-07-29T18:34:01.641Z,42.31
2022-07-29T18:35:33.441Z,42.55
2022-07-29T18:37:05.360Z,41.87
2022-07-29T18:38:37.188Z,41.68
2022-07-29T18:40:10.865Z,42.36
2022-07-29T18:41:50.770Z,43.21
2022-07-29T18:43:23.056Z,42.67
2022-07-29T18:44:58.143Z,43.25
2022-07-29T18:46:30.100Z,42.38
2022-07-29T18:48:02.408Z,43.25
2022-07-29T18:49:36.511Z,43.23
2022-07-29T18:51:09.641Z,43.47
2022-07-29T18:52:42.567Z,43.35
2022-07-29T18:54:14.503Z,43.42
2022-07-29T18:55:46.423Z,43.73
2022-07-29T18:57:55.199Z,43.22
2022-07-29T18:59:10.638Z,43.25
2022-07-29T19:00:42.508Z,43.53
2022-07-29T19:02:16.698Z,43.51
2022-07-29T19:03:48.808Z,44.03
2022-07-29T19:05:23.828Z,44.57
2022-07-29T19:06:56.590Z,44.34
2022-07-29T19:08:28.664Z,43.90
2022-07-29T19:10:00.775Z,43.86
2022-07-29T19:11:32.633Z,43.84
2022-07-29T19:13:04.651Z,44.55
2022-07-29T19:14:36.519Z,44.55
2022-07-29T19:16:12.063Z,45.17
2022-07-29T19:17:43.892Z,45.24
2022-07-29T19:19:15.751Z,45.13
2022-07-29T19:20:47.673Z,45.25
2022-07-29T19:22:23.010Z,44.88
2022-07-29T19:24:01.825Z,45.96
2022-07-29T19:25:53.885Z,45.67
2022-07-29T19:27:26.179Z,45.83
2022-07-29T19:28:58.039Z,45.94
2022-07-29T19:30:30.022Z,45.94
2022-07-29T19:32:01.938Z,45.93
2022-07-29T19:33:34.295Z,46.72
2022-07-29T19:35:45.010Z,45.60
2022-07-29T19:37:16.896Z,46.40
2022-07-29T19:38:48.781Z,45.70
2022-07-29T19:40:21.414Z,46.41
2022-07-29T19:41:57.207Z,46.59
2022-07-29T19:43:50.633Z,47.16
2022-07-29T19:45:24.964Z,47.28
2022-07-29T19:46:57.100Z,46.79
2022-07-29T19:48:29.333Z,46.99
2022-07-29T19:50:01.435Z,47.55
2022-07-29T19:51:34.008Z,47.05
2022-07-29T19:53:05.838Z,47.65
2022-07-29T19:54:37.766Z,47.74
2022-07-29T19:56:09.575Z,47.57
2022-07-29T19:57:42.036Z,48.12
2022-07-29T19:59:13.937Z,48.14
2022-07-29T20:00:45.857Z,48.15
2022-07-29T20:02:17.908Z,48.05
2022-07-29T20:03:49.844Z,48.57
2022-07-29T20:05:21.664Z,49.12
2022-07-29T20:07:01.793Z,48.85
2022-07-29T20:08:36.530Z,48.43
2022-07-29T20:10:09.333Z,49.62
2022-07-29T20:11:41.163Z,49.58
2022-07-29T20:13:15.950Z,50.21
2022-07-29T20:14:48.397Z,49.73
2022-07-29T20:16:20.636Z,49.71
2022-07-29T20:17:56.756Z,50.56
2022-07-29T20:19:29.084Z,50.39
2022-07-29T20:21:01.588Z,49.54
2022-07-29T20:22:37.184Z,50.44
2022-07-29T20:24:10.465Z,50.48
2022-07-29T20:25:42.773Z,50.22
2022-07-29T20:27:14.753Z,50.78
2022-07-29T20:28:49.401Z,50.47
2022-07-29T20:30:22.402Z,51.66